sensor_id;sensor_type;location;lat;lon;timestamp;P1;durP1;ratioP1;P2;durP2;ratioP2
25057;SDS011;13057;50.978;11.034;2023-05-01T00:00:48;10.38;;;6.30;;
25057;SDS011;13057;50.978;11.034;2023-05-01T00:03:14;16.48;;;6.72;;
25057;SDS011;13057;50.978;11.034;2023-05-01T00:05:42;11.30;;;6.95;;
25057;SDS011;13057;50.978;11.034;2023-05-01T00:08:08;13.32;;;7.68;;
25057;SDS011;13057;50.978;11.034;2023-05-01T00:10:35;14.88;;;7.90;;
25057;SDS011;13057;50.978;11.034;2023-05-01T00:13:02;13.77;;;7.75;;
25057;SDS011;13057;50.978;11.034;2023-05-01T00:15:28;10.95;;;7.30;;
25057;SDS011;13057;50.978;11.034;2023-05-01T00:17:54;16.02;;;8.38;;
25057;SDS011;13057;50.978;11.034;2023-05-01T00:20:20;15.43;;;8.07;;
25057;SDS011;13057;50.978;11.034;2023-05-01T00:22:47;14.05;;;7.82;;
25057;SDS011;13057;50.978;11.034;2023-05-01T00:25:13;17.58;;;8.38;;
25057;SDS011;13057;50.978;11.034;2023-05-01T00:27:39;12.23;;;7.75;;
25057;SDS011;13057;50.978;11.034;2023-05-01T00:30:06;15.15;;;8.20;;
25057;SDS011;13057;50.978;11.034;2023-05-01T00:32:32;11.98;;;7.25;;
25057;SDS011;13057;50.978;11.034;2023-05-01T00:34:58;12.85;;;7.35;;
25057;SDS011;13057;50.978;11.034;2023-05-01T00:37:24;12.63;;;6.93;;
25057;SDS011;13057;50.978;11.034;2023-05-01T00:39:50;16.00;;;6.78;;
25057;SDS011;13057;50.978;11.034;2023-05-01T00:42:16;11.40;;;6.78;;
25057;SDS011;13057;50.978;11.034;2023-05-01T00:44:42;19.88;;;6.95;;
25057;SDS011;13057;50.978;11.034;2023-05-01T00:47:08;11.65;;;7.43;;
25057;SDS011;13057;50.978;11.034;2023-05-01T00:49:34;16.83;;;7.18;;
25057;SDS011;13057;50.978;11.034;2023-05-01T00:52:00;12.35;;;7.28;;
25057;SDS011;13057;50.978;11.034;2023-05-01T00:54:26;12.50;;;7.47;;
25057;SDS011;13057;50.978;11.034;2023-05-01T00:56:52;13.55;;;7.53;;
25057;SDS011;13057;50.978;11.034;2023-05-01T00:59:18;11.90;;;7.38;;
25057;SDS011;13057;50.978;11.034;2023-05-01T01:01:44;13.00;;;6.70;;
25057;SDS011;13057;50.978;11.034;2023-05-01T01:04:11;10.98;;;6.80;;
25057;SDS011;13057;50.978;11.034;2023-05-01T01:06:41;11.52;;;6.63;;
25057;SDS011;13057;50.978;11.034;2023-05-01T01:09:30;16.00;;;6.60;;
25057;SDS011;13057;50.978;11.034;2023-05-01T01:12:14;12.07;;;6.75;;
25057;SDS011;13057;50.978;11.034;2023-05-01T01:14:57;11.13;;;6.32;;
25057;SDS011;13057;50.978;11.034;2023-05-01T01:17:37;12.90;;;6.88;;
25057;SDS011;13057;50.978;11.034;2023-05-01T01:20:23;13.10;;;7.20;;
25057;SDS011;13057;50.978;11.034;2023-05-01T01:26:01;9.60;;;6.00;;
25057;SDS011;13057;50.978;11.034;2023-05-01T01:31:31;9.93;;;6.13;;
25057;SDS011;13057;50.978;11.034;2023-05-01T01:34:14;8.85;;;5.65;;
25057;SDS011;13057;50.978;11.034;2023-05-01T01:36:55;9.82;;;6.25;;
25057;SDS011;13057;50.978;11.034;2023-05-01T01:39:29;14.35;;;6.22;;
25057;SDS011;13057;50.978;11.034;2023-05-01T01:42:08;10.52;;;6.00;;
25057;SDS011;13057;50.978;11.034;2023-05-01T01:44:41;11.70;;;5.90;;
25057;SDS011;13057;50.978;11.034;2023-05-01T01:47:13;11.70;;;6.50;;
25057;SDS011;13057;50.978;11.034;2023-05-01T01:49:43;11.00;;;6.15;;
25057;SDS011;13057;50.978;11.034;2023-05-01T01:52:12;8.90;;;6.00;;
25057;SDS011;13057;50.978;11.034;2023-05-01T01:54:44;9.13;;;5.55;;
25057;SDS011;13057;50.978;11.034;2023-05-01T01:57:19;9.25;;;5.18;;
25057;SDS011;13057;50.978;11.034;2023-05-01T01:59:46;9.95;;;5.50;;
25057;SDS011;13057;50.978;11.034;2023-05-01T02:02:14;14.27;;;6.15;;
25057;SDS011;13057;50.978;11.034;2023-05-01T02:04:43;8.77;;;5.88;;
25057;SDS011;13057;50.978;11.034;2023-05-01T02:07:11;9.65;;;5.25;;
25057;SDS011;13057;50.978;11.034;2023-05-01T02:09:39;10.27;;;5.75;;
25057;SDS011;13057;50.978;11.034;2023-05-01T02:12:07;14.55;;;6.07;;
25057;SDS011;13057;50.978;11.034;2023-05-01T02:14:34;9.40;;;4.93;;
25057;SDS011;13057;50.978;11.034;2023-05-01T02:17:00;12.50;;;5.95;;
25057;SDS011;13057;50.978;11.034;2023-05-01T02:19:27;12.18;;;5.57;;
25057;SDS011;13057;50.978;11.034;2023-05-01T02:21:54;11.25;;;5.72;;
25057;SDS011;13057;50.978;11.034;2023-05-01T02:24:23;11.60;;;5.75;;
25057;SDS011;13057;50.978;11.034;2023-05-01T02:26:53;9.70;;;6.15;;
25057;SDS011;13057;50.978;11.034;2023-05-01T02:29:23;12.60;;;5.93;;
25057;SDS011;13057;50.978;11.034;2023-05-01T02:31:50;13.38;;;5.45;;
25057;SDS011;13057;50.978;11.034;2023-05-01T02:34:16;11.43;;;5.97;;
25057;SDS011;13057;50.978;11.034;2023-05-01T02:36:42;12.10;;;6.90;;
25057;SDS011;13057;50.978;11.034;2023-05-01T02:39:08;12.73;;;6.13;;
25057;SDS011;13057;50.978;11.034;2023-05-01T02:41:34;9.52;;;6.28;;
25057;SDS011;13057;50.978;11.034;2023-05-01T02:44:01;12.45;;;6.85;;
25057;SDS011;13057;50.978;11.034;2023-05-01T02:46:29;8.82;;;6.07;;
25057;SDS011;13057;50.978;11.034;2023-05-01T02:48:59;14.65;;;6.75;;
25057;SDS011;13057;50.978;11.034;2023-05-01T02:51:27;12.43;;;6.57;;
25057;SDS011;13057;50.978;11.034;2023-05-01T02:53:54;14.45;;;6.60;;
25057;SDS011;13057;50.978;11.034;2023-05-01T02:56:20;12.52;;;6.57;;
25057;SDS011;13057;50.978;11.034;2023-05-01T02:58:47;17.05;;;12.13;;
25057;SDS011;13057;50.978;11.034;2023-05-01T03:01:14;12.50;;;7.40;;
25057;SDS011;13057;50.978;11.034;2023-05-01T03:03:40;12.50;;;6.70;;
25057;SDS011;13057;50.978;11.034;2023-05-01T03:06:06;36.03;;;24.50;;
25057;SDS011;13057;50.978;11.034;2023-05-01T03:08:32;10.77;;;6.47;;
25057;SDS011;13057;50.978;11.034;2023-05-01T03:10:58;16.10;;;6.80;;
25057;SDS011;13057;50.978;11.034;2023-05-01T03:13:23;12.63;;;6.03;;
25057;SDS011;13057;50.978;11.034;2023-05-01T03:15:49;12.30;;;6.45;;
25057;SDS011;13057;50.978;11.034;2023-05-01T03:18:15;12.57;;;6.30;;
25057;SDS011;13057;50.978;11.034;2023-05-01T03:20:49;10.15;;;6.38;;
25057;SDS011;13057;50.978;11.034;2023-05-01T03:23:18;12.25;;;7.32;;
25057;SDS011;13057;50.978;11.034;2023-05-01T03:25:44;12.27;;;7.18;;
25057;SDS011;13057;50.978;11.034;2023-05-01T03:28:10;12.93;;;7.47;;
25057;SDS011;13057;50.978;11.034;2023-05-01T03:30:36;10.80;;;6.47;;
25057;SDS011;13057;50.978;11.034;2023-05-01T03:33:01;13.98;;;6.82;;
25057;SDS011;13057;50.978;11.034;2023-05-01T03:35:28;13.65;;;7.00;;
25057;SDS011;13057;50.978;11.034;2023-05-01T03:37:53;14.18;;;6.85;;
25057;SDS011;13057;50.978;11.034;2023-05-01T03:40:19;11.20;;;6.50;;
25057;SDS011;13057;50.978;11.034;2023-05-01T03:42:45;10.93;;;5.80;;
25057;SDS011;13057;50.978;11.034;2023-05-01T03:45:11;11.45;;;5.97;;
25057;SDS011;13057;50.978;11.034;2023-05-01T03:47:37;11.68;;;5.57;;
25057;SDS011;13057;50.978;11.034;2023-05-01T03:50:03;7.72;;;5.10;;
25057;SDS011;13057;50.978;11.034;2023-05-01T03:52:29;8.95;;;5.50;;
25057;SDS011;13057;50.978;11.034;2023-05-01T03:54:55;10.70;;;5.90;;
25057;SDS011;13057;50.978;11.034;2023-05-01T03:57:21;10.98;;;5.65;;
25057;SDS011;13057;50.978;11.034;2023-05-01T03:59:48;10.02;;;6.15;;
25057;SDS011;13057;50.978;11.034;2023-05-01T04:02:13;15.73;;;7.30;;
25057;SDS011;13057;50.978;11.034;2023-05-01T04:04:40;10.27;;;5.80;;
25057;SDS011;13057;50.978;11.034;2023-05-01T04:07:06;15.00;;;6.22;;
25057;SDS011;13057;50.978;11.034;2023-05-01T04:09:32;13.10;;;6.68;;
25057;SDS011;13057;50.978;11.034;2023-05-01T04:11:58;12.90;;;5.68;;
25057;SDS011;13057;50.978;11.034;2023-05-01T04:14:23;14.98;;;6.45;;
25057;SDS011;13057;50.978;11.034;2023-05-01T04:16:49;11.77;;;5.45;;
25057;SDS011;13057;50.978;11.034;2023-05-01T04:19:16;12.23;;;5.95;;
25057;SDS011;13057;50.978;11.034;2023-05-01T04:21:42;10.80;;;5.63;;
25057;SDS011;13057;50.978;11.034;2023-05-01T04:24:07;9.48;;;5.75;;
25057;SDS011;13057;50.978;11.034;2023-05-01T04:26:33;15.57;;;6.00;;
25057;SDS011;13057;50.978;11.034;2023-05-01T04:29:00;11.15;;;6.13;;
25057;SDS011;13057;50.978;11.034;2023-05-01T04:31:25;8.52;;;5.35;;
25057;SDS011;13057;50.978;11.034;2023-05-01T04:33:51;11.25;;;5.90;;
25057;SDS011;13057;50.978;11.034;2023-05-01T04:36:18;10.68;;;5.60;;
25057;SDS011;13057;50.978;11.034;2023-05-01T04:38:43;15.73;;;5.88;;
25057;SDS011;13057;50.978;11.034;2023-05-01T04:41:09;15.45;;;6.60;;
25057;SDS011;13057;50.978;11.034;2023-05-01T04:43:35;12.95;;;6.72;;
25057;SDS011;13057;50.978;11.034;2023-05-01T04:46:02;16.65;;;7.43;;
25057;SDS011;13057;50.978;11.034;2023-05-01T04:48:29;15.70;;;7.55;;
25057;SDS011;13057;50.978;11.034;2023-05-01T04:50:54;12.65;;;6.47;;
25057;SDS011;13057;50.978;11.034;2023-05-01T04:53:21;14.90;;;7.07;;
25057;SDS011;13057;50.978;11.034;2023-05-01T04:55:47;12.90;;;6.60;;
25057;SDS011;13057;50.978;11.034;2023-05-01T04:58:13;14.65;;;7.28;;
25057;SDS011;13057;50.978;11.034;2023-05-01T05:00:39;16.77;;;6.88;;
25057;SDS011;13057;50.978;11.034;2023-05-01T05:03:05;12.95;;;7.43;;
25057;SDS011;13057;50.978;11.034;2023-05-01T05:05:31;11.13;;;6.72;;
25057;SDS011;13057;50.978;11.034;2023-05-01T05:07:57;11.98;;;7.10;;
25057;SDS011;13057;50.978;11.034;2023-05-01T05:10:23;14.00;;;7.00;;
25057;SDS011;13057;50.978;11.034;2023-05-01T05:12:48;10.07;;;6.68;;
25057;SDS011;13057;50.978;11.034;2023-05-01T05:15:15;12.57;;;7.15;;
25057;SDS011;13057;50.978;11.034;2023-05-01T05:17:40;15.85;;;7.60;;
25057;SDS011;13057;50.978;11.034;2023-05-01T05:20:06;14.15;;;7.05;;
25057;SDS011;13057;50.978;11.034;2023-05-01T05:22:36;16.98;;;7.82;;
25057;SDS011;13057;50.978;11.034;2023-05-01T05:25:02;12.82;;;7.63;;
25057;SDS011;13057;50.978;11.034;2023-05-01T05:27:30;13.30;;;7.07;;
25057;SDS011;13057;50.978;11.034;2023-05-01T05:30:00;12.15;;;6.88;;
25057;SDS011;13057;50.978;11.034;2023-05-01T05:32:27;13.02;;;7.45;;
25057;SDS011;13057;50.978;11.034;2023-05-01T05:34:53;14.35;;;7.28;;
25057;SDS011;13057;50.978;11.034;2023-05-01T05:37:19;14.38;;;7.47;;
25057;SDS011;13057;50.978;11.034;2023-05-01T05:39:45;11.15;;;7.28;;
25057;SDS011;13057;50.978;11.034;2023-05-01T05:42:11;14.50;;;7.35;;
25057;SDS011;13057;50.978;11.034;2023-05-01T05:44:37;13.23;;;6.97;;
25057;SDS011;13057;50.978;11.034;2023-05-01T05:47:03;14.10;;;7.60;;
25057;SDS011;13057;50.978;11.034;2023-05-01T05:49:29;12.70;;;7.07;;
25057;SDS011;13057;50.978;11.034;2023-05-01T05:51:55;15.80;;;7.85;;
25057;SDS011;13057;50.978;11.034;2023-05-01T05:54:21;12.50;;;7.40;;
25057;SDS011;13057;50.978;11.034;2023-05-01T05:56:47;14.73;;;7.72;;
25057;SDS011;13057;50.978;11.034;2023-05-01T05:59:13;14.00;;;7.63;;
25057;SDS011;13057;50.978;11.034;2023-05-01T06:01:39;15.82;;;8.32;;
25057;SDS011;13057;50.978;11.034;2023-05-01T06:04:07;16.02;;;7.75;;
25057;SDS011;13057;50.978;11.034;2023-05-01T06:06:32;12.18;;;8.07;;
25057;SDS011;13057;50.978;11.034;2023-05-01T06:08:58;19.35;;;7.80;;
25057;SDS011;13057;50.978;11.034;2023-05-01T06:11:25;19.95;;;8.20;;
25057;SDS011;13057;50.978;11.034;2023-05-01T06:13:52;14.85;;;8.35;;
25057;SDS011;13057;50.978;11.034;2023-05-01T06:16:17;15.75;;;8.43;;
25057;SDS011;13057;50.978;11.034;2023-05-01T06:18:43;14.98;;;8.75;;
25057;SDS011;13057;50.978;11.034;2023-05-01T06:21:09;15.65;;;8.18;;
25057;SDS011;13057;50.978;11.034;2023-05-01T06:23:35;16.58;;;8.75;;
25057;SDS011;13057;50.978;11.034;2023-05-01T06:26:01;15.27;;;8.63;;
25057;SDS011;13057;50.978;11.034;2023-05-01T06:28:27;14.48;;;8.63;;
25057;SDS011;13057;50.978;11.034;2023-05-01T06:30:53;14.15;;;8.32;;
25057;SDS011;13057;50.978;11.034;2023-05-01T06:33:19;14.77;;;8.43;;
25057;SDS011;13057;50.978;11.034;2023-05-01T06:35:45;13.70;;;8.85;;
25057;SDS011;13057;50.978;11.034;2023-05-01T06:38:11;14.95;;;8.98;;
25057;SDS011;13057;50.978;11.034;2023-05-01T06:40:37;14.88;;;8.95;;
25057;SDS011;13057;50.978;11.034;2023-05-01T06:43:03;16.52;;;9.27;;
25057;SDS011;13057;50.978;11.034;2023-05-01T06:45:29;18.38;;;9.68;;
25057;SDS011;13057;50.978;11.034;2023-05-01T06:47:55;16.58;;;10.23;;
25057;SDS011;13057;50.978;11.034;2023-05-01T06:50:21;17.98;;;9.68;;
25057;SDS011;13057;50.978;11.034;2023-05-01T06:52:47;18.27;;;10.57;;
25057;SDS011;13057;50.978;11.034;2023-05-01T06:55:13;15.88;;;10.40;;
25057;SDS011;13057;50.978;11.034;2023-05-01T06:57:39;16.77;;;10.55;;
25057;SDS011;13057;50.978;11.034;2023-05-01T07:00:05;18.65;;;10.50;;
25057;SDS011;13057;50.978;11.034;2023-05-01T07:02:32;17.08;;;10.32;;
25057;SDS011;13057;50.978;11.034;2023-05-01T07:04:59;16.88;;;10.13;;
25057;SDS011;13057;50.978;11.034;2023-05-01T07:07:25;18.23;;;10.57;;
25057;SDS011;13057;50.978;11.034;2023-05-01T07:09:51;16.70;;;9.95;;
25057;SDS011;13057;50.978;11.034;2023-05-01T07:12:17;23.17;;;10.80;;
25057;SDS011;13057;50.978;11.034;2023-05-01T07:14:43;21.92;;;10.93;;
25057;SDS011;13057;50.978;11.034;2023-05-01T07:17:08;19.15;;;10.52;;
25057;SDS011;13057;50.978;11.034;2023-05-01T07:19:34;19.00;;;10.30;;
25057;SDS011;13057;50.978;11.034;2023-05-01T07:22:00;18.33;;;10.52;;
25057;SDS011;13057;50.978;11.034;2023-05-01T07:24:27;17.05;;;10.60;;
25057;SDS011;13057;50.978;11.034;2023-05-01T07:26:53;19.35;;;9.90;;
25057;SDS011;13057;50.978;11.034;2023-05-01T07:29:20;17.17;;;10.82;;
25057;SDS011;13057;50.978;11.034;2023-05-01T07:31:46;21.25;;;11.52;;
25057;SDS011;13057;50.978;11.034;2023-05-01T07:34:12;17.27;;;10.40;;
25057;SDS011;13057;50.978;11.034;2023-05-01T07:36:38;19.00;;;10.88;;
25057;SDS011;13057;50.978;11.034;2023-05-01T07:39:04;21.85;;;12.07;;
25057;SDS011;13057;50.978;11.034;2023-05-01T07:41:30;18.42;;;11.32;;
25057;SDS011;13057;50.978;11.034;2023-05-01T07:43:58;18.75;;;11.43;;
25057;SDS011;13057;50.978;11.034;2023-05-01T07:46:23;20.25;;;12.25;;
25057;SDS011;13057;50.978;11.034;2023-05-01T07:48:49;18.50;;;11.23;;
25057;SDS011;13057;50.978;11.034;2023-05-01T07:51:16;20.65;;;11.80;;
25057;SDS011;13057;50.978;11.034;2023-05-01T07:53:43;18.88;;;11.73;;
25057;SDS011;13057;50.978;11.034;2023-05-01T07:56:10;19.48;;;11.35;;
25057;SDS011;13057;50.978;11.034;2023-05-01T07:58:36;18.63;;;10.82;;
25057;SDS011;13057;50.978;11.034;2023-05-01T08:01:02;18.02;;;11.57;;
25057;SDS011;13057;50.978;11.034;2023-05-01T08:03:30;22.13;;;11.57;;
25057;SDS011;13057;50.978;11.034;2023-05-01T08:05:56;19.63;;;12.20;;
25057;SDS011;13057;50.978;11.034;2023-05-01T08:08:22;18.52;;;11.20;;
25057;SDS011;13057;50.978;11.034;2023-05-01T08:10:49;17.27;;;11.23;;
25057;SDS011;13057;50.978;11.034;2023-05-01T08:13:16;19.20;;;11.15;;
25057;SDS011;13057;50.978;11.034;2023-05-01T08:15:44;19.20;;;11.00;;
25057;SDS011;13057;50.978;11.034;2023-05-01T08:18:11;18.88;;;11.45;;
25057;SDS011;13057;50.978;11.034;2023-05-01T08:20:39;17.33;;;11.85;;
25057;SDS011;13057;50.978;11.034;2023-05-01T08:23:05;20.80;;;11.63;;
25057;SDS011;13057;50.978;11.034;2023-05-01T08:25:30;19.88;;;12.55;;
25057;SDS011;13057;50.978;11.034;2023-05-01T08:27:56;23.50;;;11.40;;
25057;SDS011;13057;50.978;11.034;2023-05-01T08:30:22;23.48;;;12.48;;
25057;SDS011;13057;50.978;11.034;2023-05-01T08:32:48;21.77;;;12.73;;
25057;SDS011;13057;50.978;11.034;2023-05-01T08:35:14;24.20;;;12.48;;
25057;SDS011;13057;50.978;11.034;2023-05-01T08:37:40;22.85;;;12.73;;
25057;SDS011;13057;50.978;11.034;2023-05-01T08:40:06;18.52;;;12.88;;
25057;SDS011;13057;50.978;11.034;2023-05-01T08:42:34;21.52;;;11.68;;
25057;SDS011;13057;50.978;11.034;2023-05-01T08:45:02;17.58;;;11.52;;
25057;SDS011;13057;50.978;11.034;2023-05-01T08:47:28;19.67;;;12.13;;
25057;SDS011;13057;50.978;11.034;2023-05-01T08:49:55;19.25;;;10.85;;
25057;SDS011;13057;50.978;11.034;2023-05-01T08:52:23;19.15;;;11.35;;
25057;SDS011;13057;50.978;11.034;2023-05-01T08:54:53;16.08;;;10.50;;
25057;SDS011;13057;50.978;11.034;2023-05-01T08:57:20;20.67;;;11.48;;
25057;SDS011;13057;50.978;11.034;2023-05-01T08:59:46;17.05;;;10.75;;
25057;SDS011;13057;50.978;11.034;2023-05-01T09:02:15;16.27;;;10.35;;
25057;SDS011;13057;50.978;11.034;2023-05-01T09:04:42;18.65;;;10.30;;
25057;SDS011;13057;50.978;11.034;2023-05-01T09:07:09;15.98;;;9.90;;
25057;SDS011;13057;50.978;11.034;2023-05-01T09:09:35;19.00;;;10.70;;
25057;SDS011;13057;50.978;11.034;2023-05-01T09:12:05;15.75;;;10.02;;
25057;SDS011;13057;50.978;11.034;2023-05-01T09:14:51;14.98;;;10.00;;
25057;SDS011;13057;50.978;11.034;2023-05-01T09:17:17;17.17;;;10.77;;
25057;SDS011;13057;50.978;11.034;2023-05-01T09:19:46;15.65;;;10.70;;
25057;SDS011;13057;50.978;11.034;2023-05-01T09:22:13;18.10;;;9.93;;
25057;SDS011;13057;50.978;11.034;2023-05-01T09:24:40;19.80;;;10.55;;
25057;SDS011;13057;50.978;11.034;2023-05-01T09:27:05;17.85;;;9.98;;
25057;SDS011;13057;50.978;11.034;2023-05-01T09:29:39;18.75;;;11.15;;
25057;SDS011;13057;50.978;11.034;2023-05-01T09:32:14;15.88;;;10.68;;
25057;SDS011;13057;50.978;11.034;2023-05-01T09:34:41;16.38;;;9.93;;
25057;SDS011;13057;50.978;11.034;2023-05-01T09:37:10;17.63;;;10.13;;
25057;SDS011;13057;50.978;11.034;2023-05-01T09:39:38;19.73;;;10.60;;
25057;SDS011;13057;50.978;11.034;2023-05-01T09:42:13;19.70;;;10.95;;
25057;SDS011;13057;50.978;11.034;2023-05-01T09:44:48;14.45;;;10.32;;
25057;SDS011;13057;50.978;11.034;2023-05-01T09:47:19;17.10;;;10.30;;
25057;SDS011;13057;50.978;11.034;2023-05-01T09:49:47;15.68;;;9.88;;
25057;SDS011;13057;50.978;11.034;2023-05-01T09:52:14;15.65;;;9.50;;
25057;SDS011;13057;50.978;11.034;2023-05-01T09:54:40;17.63;;;9.82;;
25057;SDS011;13057;50.978;11.034;2023-05-01T09:57:07;15.90;;;9.85;;
25057;SDS011;13057;50.978;11.034;2023-05-01T09:59:34;15.82;;;10.32;;
25057;SDS011;13057;50.978;11.034;2023-05-01T10:02:00;16.33;;;10.55;;
25057;SDS011;13057;50.978;11.034;2023-05-01T10:04:30;13.48;;;9.30;;
25057;SDS011;13057;50.978;11.034;2023-05-01T10:06:59;16.77;;;10.35;;
25057;SDS011;13057;50.978;11.034;2023-05-01T10:09:37;15.13;;;9.48;;
25057;SDS011;13057;50.978;11.034;2023-05-01T10:12:03;18.98;;;9.60;;
25057;SDS011;13057;50.978;11.034;2023-05-01T10:14:30;16.55;;;9.52;;
25057;SDS011;13057;50.978;11.034;2023-05-01T10:16:58;16.23;;;9.07;;
25057;SDS011;13057;50.978;11.034;2023-05-01T10:19:24;14.60;;;8.25;;
25057;SDS011;13057;50.978;11.034;2023-05-01T10:21:50;16.13;;;9.20;;
25057;SDS011;13057;50.978;11.034;2023-05-01T10:24:17;10.77;;;8.23;;
25057;SDS011;13057;50.978;11.034;2023-05-01T10:26:43;12.90;;;7.97;;
25057;SDS011;13057;50.978;11.034;2023-05-01T10:29:12;15.95;;;8.30;;
25057;SDS011;13057;50.978;11.034;2023-05-01T10:31:39;17.60;;;8.80;;
25057;SDS011;13057;50.978;11.034;2023-05-01T10:34:05;13.13;;;8.45;;
25057;SDS011;13057;50.978;11.034;2023-05-01T10:36:36;12.60;;;7.78;;
25057;SDS011;13057;50.978;11.034;2023-05-01T10:41:59;13.60;;;6.78;;
25057;SDS011;13057;50.978;11.034;2023-05-01T10:44:27;10.40;;;6.55;;
25057;SDS011;13057;50.978;11.034;2023-05-01T10:46:54;11.32;;;6.40;;
25057;SDS011;13057;50.978;11.034;2023-05-01T10:49:20;9.80;;;6.30;;
25057;SDS011;13057;50.978;11.034;2023-05-01T10:51:56;8.65;;;5.68;;
25057;SDS011;13057;50.978;11.034;2023-05-01T10:54:25;8.93;;;6.10;;
25057;SDS011;13057;50.978;11.034;2023-05-01T10:56:53;9.45;;;5.70;;
25057;SDS011;13057;50.978;11.034;2023-05-01T10:59:21;9.13;;;5.63;;
25057;SDS011;13057;50.978;11.034;2023-05-01T11:01:48;9.40;;;4.80;;
25057;SDS011;13057;50.978;11.034;2023-05-01T11:07:13;10.20;;;4.53;;
25057;SDS011;13057;50.978;11.034;2023-05-01T11:09:45;10.57;;;5.20;;
25057;SDS011;13057;50.978;11.034;2023-05-01T11:12:14;6.45;;;4.40;;
25057;SDS011;13057;50.978;11.034;2023-05-01T11:15:00;5.78;;;4.20;;
25057;SDS011;13057;50.978;11.034;2023-05-01T11:17:43;6.88;;;4.35;;
25057;SDS011;13057;50.978;11.034;2023-05-01T11:20:10;7.00;;;4.40;;
25057;SDS011;13057;50.978;11.034;2023-05-01T11:22:38;8.70;;;5.20;;
25057;SDS011;13057;50.978;11.034;2023-05-01T11:25:16;7.18;;;4.45;;
25057;SDS011;13057;50.978;11.034;2023-05-01T11:27:46;8.35;;;4.78;;
25057;SDS011;13057;50.978;11.034;2023-05-01T11:30:13;9.68;;;4.35;;
25057;SDS011;13057;50.978;11.034;2023-05-01T11:32:51;13.57;;;8.70;;
25057;SDS011;13057;50.978;11.034;2023-05-01T11:35:19;5.30;;;4.20;;
25057;SDS011;13057;50.978;11.034;2023-05-01T11:37:47;8.50;;;4.68;;
25057;SDS011;13057;50.978;11.034;2023-05-01T11:40:20;8.38;;;4.75;;
25057;SDS011;13057;50.978;11.034;2023-05-01T11:42:48;7.93;;;4.30;;
25057;SDS011;13057;50.978;11.034;2023-05-01T11:45:15;7.65;;;4.90;;
25057;SDS011;13057;50.978;11.034;2023-05-01T11:47:41;9.23;;;4.50;;
25057;SDS011;13057;50.978;11.034;2023-05-01T11:50:08;6.47;;;4.55;;
25057;SDS011;13057;50.978;11.034;2023-05-01T11:52:44;4.70;;;3.60;;
25057;SDS011;13057;50.978;11.034;2023-05-01T11:55:14;5.82;;;3.70;;
25057;SDS011;13057;50.978;11.034;2023-05-01T11:57:43;6.38;;;3.78;;
25057;SDS011;13057;50.978;11.034;2023-05-01T12:00:26;8.65;;;3.90;;
25057;SDS011;13057;50.978;11.034;2023-05-01T12:02:54;6.28;;;3.95;;
25057;SDS011;13057;50.978;11.034;2023-05-01T12:10:39;7.30;;;3.92;;
25057;SDS011;13057;50.978;11.034;2023-05-01T12:13:08;7.30;;;4.25;;
25057;SDS011;13057;50.978;11.034;2023-05-01T12:15:37;9.10;;;3.45;;
25057;SDS011;13057;50.978;11.034;2023-05-01T12:18:05;5.70;;;4.03;;
25057;SDS011;13057;50.978;11.034;2023-05-01T12:20:36;8.55;;;4.78;;
25057;SDS011;13057;50.978;11.034;2023-05-01T12:23:04;6.25;;;3.88;;
25057;SDS011;13057;50.978;11.034;2023-05-01T12:25:31;7.90;;;4.07;;
25057;SDS011;13057;50.978;11.034;2023-05-01T12:27:58;6.07;;;3.35;;
25057;SDS011;13057;50.978;11.034;2023-05-01T12:30:26;8.50;;;3.60;;
25057;SDS011;13057;50.978;11.034;2023-05-01T12:32:53;4.75;;;3.65;;
25057;SDS011;13057;50.978;11.034;2023-05-01T12:35:20;5.38;;;3.40;;
25057;SDS011;13057;50.978;11.034;2023-05-01T12:37:47;4.43;;;2.70;;
25057;SDS011;13057;50.978;11.034;2023-05-01T12:40:14;4.30;;;2.90;;
25057;SDS011;13057;50.978;11.034;2023-05-01T12:42:43;5.85;;;3.47;;
25057;SDS011;13057;50.978;11.034;2023-05-01T12:45:17;5.28;;;3.30;;
25057;SDS011;13057;50.978;11.034;2023-05-01T12:47:43;4.20;;;3.00;;
25057;SDS011;13057;50.978;11.034;2023-05-01T12:50:09;4.82;;;3.00;;
25057;SDS011;13057;50.978;11.034;2023-05-01T12:52:35;5.45;;;3.50;;
25057;SDS011;13057;50.978;11.034;2023-05-01T12:55:02;4.78;;;3.00;;
25057;SDS011;13057;50.978;11.034;2023-05-01T12:57:29;4.00;;;2.85;;
25057;SDS011;13057;50.978;11.034;2023-05-01T12:59:57;4.72;;;3.60;;
25057;SDS011;13057;50.978;11.034;2023-05-01T13:02:29;5.70;;;3.53;;
25057;SDS011;13057;50.978;11.034;2023-05-01T13:05:04;5.63;;;3.05;;
25057;SDS011;13057;50.978;11.034;2023-05-01T13:07:30;5.97;;;3.63;;
25057;SDS011;13057;50.978;11.034;2023-05-01T13:09:57;5.32;;;3.42;;
25057;SDS011;13057;50.978;11.034;2023-05-01T13:12:24;4.53;;;3.55;;
25057;SDS011;13057;50.978;11.034;2023-05-01T13:14:50;5.15;;;3.47;;
25057;SDS011;13057;50.978;11.034;2023-05-01T13:17:24;5.57;;;3.60;;
25057;SDS011;13057;50.978;11.034;2023-05-01T13:19:57;4.28;;;3.30;;
25057;SDS011;13057;50.978;11.034;2023-05-01T13:22:28;7.15;;;4.38;;
25057;SDS011;13057;50.978;11.034;2023-05-01T13:24:56;5.68;;;3.58;;
25057;SDS011;13057;50.978;11.034;2023-05-01T13:27:23;5.53;;;3.85;;
25057;SDS011;13057;50.978;11.034;2023-05-01T13:29:52;7.85;;;3.50;;
25057;SDS011;13057;50.978;11.034;2023-05-01T13:32:21;6.95;;;3.70;;
25057;SDS011;13057;50.978;11.034;2023-05-01T13:34:48;8.88;;;4.15;;
25057;SDS011;13057;50.978;11.034;2023-05-01T13:37:15;5.40;;;3.80;;
25057;SDS011;13057;50.978;11.034;2023-05-01T13:39:41;9.07;;;4.35;;
25057;SDS011;13057;50.978;11.034;2023-05-01T13:42:10;9.07;;;5.55;;
25057;SDS011;13057;50.978;11.034;2023-05-01T13:44:41;6.07;;;4.35;;
25057;SDS011;13057;50.978;11.034;2023-05-01T13:47:09;7.20;;;4.20;;
25057;SDS011;13057;50.978;11.034;2023-05-01T13:49:40;6.47;;;4.05;;
25057;SDS011;13057;50.978;11.034;2023-05-01T13:52:08;6.88;;;4.25;;
25057;SDS011;13057;50.978;11.034;2023-05-01T13:54:38;11.13;;;4.30;;
25057;SDS011;13057;50.978;11.034;2023-05-01T13:57:06;5.55;;;4.20;;
25057;SDS011;13057;50.978;11.034;2023-05-01T13:59:35;8.57;;;4.00;;
25057;SDS011;13057;50.978;11.034;2023-05-01T14:02:17;8.13;;;3.90;;
25057;SDS011;13057;50.978;11.034;2023-05-01T14:04:45;6.30;;;3.78;;
25057;SDS011;13057;50.978;11.034;2023-05-01T14:07:12;9.27;;;4.47;;
25057;SDS011;13057;50.978;11.034;2023-05-01T14:09:43;6.95;;;4.30;;
25057;SDS011;13057;50.978;11.034;2023-05-01T14:12:11;8.15;;;4.15;;
25057;SDS011;13057;50.978;11.034;2023-05-01T14:14:37;8.00;;;4.20;;
25057;SDS011;13057;50.978;11.034;2023-05-01T14:17:12;6.85;;;4.00;;
25057;SDS011;13057;50.978;11.034;2023-05-01T14:19:38;7.10;;;4.45;;
25057;SDS011;13057;50.978;11.034;2023-05-01T14:22:06;6.55;;;3.95;;
25057;SDS011;13057;50.978;11.034;2023-05-01T14:24:34;7.38;;;4.30;;
25057;SDS011;13057;50.978;11.034;2023-05-01T14:27:01;9.18;;;4.15;;
25057;SDS011;13057;50.978;11.034;2023-05-01T14:29:28;10.05;;;4.30;;
25057;SDS011;13057;50.978;11.034;2023-05-01T14:31:54;7.20;;;4.30;;
25057;SDS011;13057;50.978;11.034;2023-05-01T14:34:20;6.95;;;4.38;;
25057;SDS011;13057;50.978;11.034;2023-05-01T14:36:47;6.63;;;4.20;;
25057;SDS011;13057;50.978;11.034;2023-05-01T14:39:13;7.97;;;4.70;;
25057;SDS011;13057;50.978;11.034;2023-05-01T14:41:40;8.25;;;4.53;;
25057;SDS011;13057;50.978;11.034;2023-05-01T14:44:14;13.23;;;6.28;;